createdAt,value
2023-03-19T00:00:53.650Z,26.33
2023-03-19T00:01:53.708Z,26.35
2023-03-19T00:02:54.050Z,26.31
2023-03-19T00:03:53.894Z,26.32
2023-03-19T00:04:53.795Z,26.32
2023-03-19T00:05:54.038Z,26.32
2023-03-19T00:06:53.864Z,26.33
2023-03-19T00:07:53.888Z,26.32
2023-03-19T00:08:53.945Z,26.32
2023-03-19T00:09:54.002Z,26.33
2023-03-19T00:10:54.013Z,26.31
2023-03-19T00:11:54.039Z,26.31
2023-03-19T00:12:54.097Z,26.31
2023-03-19T00:13:54.160Z,26.32
2023-03-19T00:14:54.191Z,26.31
2023-03-19T00:15:54.246Z,26.29
2023-03-19T00:16:54.312Z,26.29
2023-03-19T00:17:54.283Z,26.29
2023-03-19T00:18:54.329Z,26.28
2023-03-19T00:19:54.331Z,26.31
2023-03-19T00:20:54.381Z,26.28
2023-03-19T00:21:54.405Z,26.31
2023-03-19T00:22:54.481Z,26.29
2023-03-19T00:23:54.519Z,26.32
2023-03-19T00:24:54.543Z,26.28
2023-03-19T00:25:54.606Z,26.29
2023-03-19T00:26:54.619Z,26.29
2023-03-19T00:27:54.656Z,26.31
2023-03-19T00:28:54.722Z,26.26
2023-03-19T00:29:54.758Z,26.31
2023-03-19T00:30:55.074Z,26.29
2023-03-19T00:31:54.815Z,26.28
2023-03-19T00:32:54.890Z,26.28
2023-03-19T00:33:54.925Z,26.28
2023-03-19T00:34:54.938Z,26.26
2023-03-19T00:35:55.018Z,26.28
2023-03-19T00:36:55.015Z,26.29
2023-03-19T00:37:55.032Z,26.28
2023-03-19T00:38:55.101Z,26.28
2023-03-19T00:39:55.137Z,26.28
2023-03-19T00:40:55.158Z,26.26
2023-03-19T00:41:55.192Z,26.29
2023-03-19T00:42:55.281Z,26.26
2023-03-19T00:43:55.297Z,26.28
2023-03-19T00:44:55.320Z,26.26
2023-03-19T00:45:55.383Z,26.25
2023-03-19T00:46:55.403Z,26.26
2023-03-19T00:47:55.417Z,26.26
2023-03-19T00:48:55.556Z,26.26
2023-03-19T00:49:55.533Z,26.25
2023-03-19T00:50:55.556Z,26.25
2023-03-19T00:51:55.715Z,26.25
2023-03-19T00:52:55.682Z,26.25
2023-03-19T00:53:55.681Z,26.26
2023-03-19T00:54:55.766Z,26.26
2023-03-19T00:55:55.819Z,26.23
2023-03-19T00:56:55.842Z,26.25
2023-03-19T00:57:55.884Z,26.25
2023-03-19T00:58:55.924Z,26.26
2023-03-19T00:59:55.970Z,26.25
2023-03-19T01:00:56.032Z,26.25
2023-03-19T01:01:56.033Z,26.23
2023-03-19T01:02:56.092Z,26.23
2023-03-19T01:03:56.165Z,26.25
2023-03-19T01:04:56.168Z,26.25
2023-03-19T01:05:56.210Z,26.23
2023-03-19T01:06:56.270Z,26.25
2023-03-19T01:07:56.309Z,26.25
2023-03-19T01:08:56.360Z,26.23
2023-03-19T01:09:56.365Z,26.23
2023-03-19T01:10:56.450Z,26.23
2023-03-19T01:11:56.475Z,26.21
2023-03-19T01:12:56.528Z,26.23
2023-03-19T01:13:56.565Z,26.23
2023-03-19T01:14:56.624Z,26.21
2023-03-19T01:15:56.684Z,26.22
2023-03-19T01:16:56.711Z,26.23
2023-03-19T01:17:56.727Z,26.23
2023-03-19T01:18:56.815Z,26.21
2023-03-19T01:19:56.825Z,26.22
2023-03-19T01:20:56.880Z,26.22
2023-03-19T01:21:56.913Z,26.25
2023-03-19T01:22:56.982Z,26.22
2023-03-19T01:23:57.249Z,26.21
2023-03-19T01:24:57.110Z,26.22
2023-03-19T01:25:57.108Z,26.21
2023-03-19T01:26:57.142Z,26.23
2023-03-19T01:27:57.158Z,26.23
2023-03-19T01:28:57.205Z,26.22
2023-03-19T01:29:57.259Z,26.22
2023-03-19T01:30:57.311Z,26.21
2023-03-19T01:31:57.328Z,26.19
2023-03-19T01:32:57.454Z,26.21
2023-03-19T01:33:57.448Z,26.23
2023-03-19T01:34:57.470Z,26.21
2023-03-19T01:35:57.543Z,26.21
2023-03-19T01:36:57.556Z,26.22
2023-03-19T01:37:57.616Z,26.22
2023-03-19T01:38:57.634Z,26.19
2023-03-19T01:39:57.680Z,26.19
2023-03-19T01:40:57.752Z,26.19
2023-03-19T01:41:57.820Z,26.19
2023-03-19T01:42:57.842Z,26.18
2023-03-19T01:43:57.856Z,26.16
2023-03-19T01:44:57.942Z,26.18
2023-03-19T01:45:57.999Z,26.19
2023-03-19T01:46:58.020Z,26.19
2023-03-19T01:47:58.053Z,26.19
2023-03-19T01:48:58.067Z,26.18
2023-03-19T01:49:58.100Z,26.22
2023-03-19T01:50:58.174Z,26.19
2023-03-19T01:51:58.201Z,26.18
2023-03-19T01:52:58.257Z,26.19
2023-03-19T01:53:58.304Z,26.19
2023-03-19T01:54:58.370Z,26.19
2023-03-19T01:55:58.381Z,26.18
2023-03-19T01:56:58.436Z,26.19
2023-03-19T01:57:58.455Z,26.19
2023-03-19T01:58:58.501Z,26.21
2023-03-19T01:59:58.557Z,26.21
2023-03-19T02:00:58.620Z,26.16
2023-03-19T02:01:58.684Z,26.18
2023-03-19T02:02:58.694Z,26.16
2023-03-19T02:03:58.735Z,26.19
2023-03-19T02:04:58.733Z,26.18
2023-03-19T02:05:58.813Z,26.16
2023-03-19T02:06:58.833Z,26.16
2023-03-19T02:07:58.878Z,26.18
2023-03-19T02:08:58.924Z,26.18
2023-03-19T02:09:58.968Z,26.18
2023-03-19T02:10:59.032Z,26.19
2023-03-19T02:11:59.068Z,26.16
2023-03-19T02:12:59.192Z,26.16
2023-03-19T02:13:59.162Z,26.16
2023-03-19T02:14:59.289Z,26.16
2023-03-19T02:15:59.282Z,26.16
2023-03-19T02:16:59.329Z,26.18
2023-03-19T02:18:59.368Z,26.15
2023-03-19T02:19:59.414Z,26.15
2023-03-19T02:20:59.473Z,26.18
2023-03-19T02:21:59.554Z,26.18
2023-03-19T02:22:59.576Z,26.16
2023-03-19T02:23:59.632Z,26.15
2023-03-19T02:24:59.713Z,26.18
2023-03-19T02:25:59.691Z,26.14
2023-03-19T02:26:59.747Z,26.16
2023-03-19T02:27:59.779Z,26.16
2023-03-19T02:28:59.821Z,26.16
2023-03-19T02:30:00.981Z,26.15
2023-03-19T02:30:59.899Z,26.16
2023-03-19T02:31:59.885Z,26.16
2023-03-19T02:32:59.897Z,26.16
2023-03-19T02:33:59.880Z,26.18
2023-03-19T02:34:59.867Z,26.14
2023-03-19T02:35:59.905Z,26.14
2023-03-19T02:36:59.862Z,26.18
2023-03-19T02:37:59.876Z,26.15
2023-03-19T02:38:59.877Z,26.15
2023-03-19T02:39:59.876Z,26.16
2023-03-19T02:40:59.864Z,26.16
2023-03-19T02:41:59.851Z,26.15
2023-03-19T02:42:59.871Z,26.18
2023-03-19T02:43:59.876Z,26.14
2023-03-19T02:44:59.856Z,26.15
2023-03-19T02:45:59.876Z,26.15
2023-03-19T02:46:59.934Z,26.15
2023-03-19T02:47:59.845Z,26.15
2023-03-19T02:48:59.849Z,26.16
2023-03-19T02:49:59.830Z,26.16
2023-03-19T02:50:59.847Z,26.16
2023-03-19T02:51:59.857Z,26.16
2023-03-19T02:52:59.829Z,26.15
2023-03-19T02:53:59.849Z,26.14
2023-03-19T02:54:59.855Z,26.15
2023-03-19T02:55:59.837Z,26.12
2023-03-19T02:56:59.850Z,26.12
2023-03-19T02:57:59.836Z,26.14
2023-03-19T02:58:59.842Z,26.15
2023-03-19T02:59:59.860Z,26.14
2023-03-19T03:00:59.842Z,26.12
2023-03-19T03:01:59.904Z,26.14
2023-03-19T03:02:59.816Z,26.14
2023-03-19T03:03:59.839Z,26.12
2023-03-19T03:04:59.846Z,26.11
2023-03-19T03:05:59.816Z,26.14
2023-03-19T03:06:59.817Z,26.14
2023-03-19T03:07:59.826Z,26.14
2023-03-19T03:08:59.792Z,26.09
2023-03-19T03:09:59.824Z,26.12
2023-03-19T03:10:59.791Z,26.12
2023-03-19T03:11:59.794Z,26.15
2023-03-19T03:12:59.801Z,26.12
2023-03-19T03:13:59.818Z,26.14
2023-03-19T03:14:59.818Z,26.12
2023-03-19T03:15:59.902Z,26.14
2023-03-19T03:16:59.796Z,26.11
2023-03-19T03:17:59.808Z,26.14
2023-03-19T03:18:59.804Z,26.12
2023-03-19T03:19:59.824Z,26.14
2023-03-19T03:20:59.840Z,26.12
2023-03-19T03:21:59.817Z,26.11
2023-03-19T03:22:59.848Z,26.12
2023-03-19T03:23:59.846Z,26.14
2023-03-19T03:24:59.855Z,26.12
2023-03-19T03:25:59.853Z,26.12
2023-03-19T03:26:59.866Z,26.12
2023-03-19T03:27:59.919Z,26.11
2023-03-19T03:28:59.969Z,26.14
2023-03-19T03:30:00.035Z,26.12
2023-03-19T03:31:00.099Z,26.12
2023-03-19T03:33:00.235Z,26.12
2023-03-19T03:34:00.266Z,26.14
2023-03-19T03:35:00.299Z,26.11
2023-03-19T03:36:00.332Z,26.12
2023-03-19T03:37:00.386Z,26.11
2023-03-19T03:38:00.460Z,26.12
2023-03-19T03:39:00.506Z,26.12
2023-03-19T03:40:00.525Z,26.11
2023-03-19T03:41:00.593Z,26.11
2023-03-19T03:42:00.618Z,26.12
2023-03-19T03:43:00.681Z,26.09
2023-03-19T03:45:00.796Z,26.12
2023-03-19T03:46:00.928Z,26.11
2023-03-19T03:47:00.864Z,26.11
2023-03-19T03:48:00.899Z,26.12
2023-03-19T03:49:00.970Z,26.08
2023-03-19T03:50:01.023Z,26.12
2023-03-19T03:51:01.050Z,26.11
2023-03-19T03:52:01.115Z,26.09
2023-03-19T03:53:01.146Z,26.11
2023-03-19T03:54:01.205Z,26.11
2023-03-19T03:55:01.282Z,26.12
2023-03-19T03:56:01.348Z,26.11
2023-03-19T03:57:03.322Z,26.11
2023-03-19T03:58:01.446Z,26.09
2023-03-19T03:59:01.480Z,26.11
2023-03-19T04:00:01.541Z,26.11
2023-03-19T04:01:01.558Z,26.11
2023-03-19T04:02:01.658Z,26.12
2023-03-19T04:03:01.711Z,26.11
2023-03-19T04:04:01.695Z,26.11
2023-03-19T04:05:01.749Z,26.09
2023-03-19T04:06:01.793Z,26.11
2023-03-19T04:07:01.847Z,26.09
2023-03-19T04:08:01.909Z,26.09
2023-03-19T04:09:01.956Z,26.09
2023-03-19T04:10:01.990Z,26.11
2023-03-19T04:11:02.026Z,26.11
2023-03-19T04:12:02.092Z,26.09
2023-03-19T04:13:02.153Z,26.11
2023-03-19T04:14:02.176Z,26.11
2023-03-19T04:15:02.196Z,26.08
2023-03-19T04:16:02.296Z,26.08
2023-03-19T04:17:02.300Z,26.08
2023-03-19T04:18:02.363Z,26.11
2023-03-19T04:19:02.453Z,26.09
2023-03-19T04:20:02.461Z,26.08
2023-03-19T04:21:02.562Z,26.12
2023-03-19T04:22:02.628Z,26.08
2023-03-19T04:23:02.677Z,26.09
2023-03-19T04:24:02.703Z,26.08
2023-03-19T04:25:02.750Z,26.09
2023-03-19T04:26:02.831Z,26.08
2023-03-19T04:27:02.836Z,26.08
2023-03-19T04:28:02.893Z,26.08
2023-03-19T04:29:02.949Z,26.08
2023-03-19T04:30:03.010Z,26.08
2023-03-19T04:31:03.177Z,26.06
2023-03-19T04:32:03.103Z,26.09
2023-03-19T04:33:03.195Z,26.09
2023-03-19T04:34:03.205Z,26.05
2023-03-19T04:35:03.256Z,26.09
2023-03-19T04:36:03.380Z,26.08
2023-03-19T04:37:03.355Z,26.09
2023-03-19T04:38:03.420Z,26.11
2023-03-19T04:39:03.466Z,26.11
2023-03-19T04:40:03.498Z,26.08
2023-03-19T04:41:03.541Z,26.08
2023-03-19T04:42:03.585Z,26.11
2023-03-19T04:43:03.633Z,26.09
2023-03-19T04:44:03.711Z,26.08
2023-03-19T04:45:03.791Z,26.08
2023-03-19T04:46:03.823Z,26.06
2023-03-19T04:47:03.817Z,26.09
2023-03-19T04:48:03.882Z,26.08
2023-03-19T04:49:03.899Z,26.06
2023-03-19T04:50:03.957Z,26.04
2023-03-19T04:51:04.065Z,26.05
2023-03-19T04:52:04.063Z,26.06
2023-03-19T04:53:04.116Z,26.06
2023-03-19T04:54:04.117Z,26.06
2023-03-19T04:55:04.190Z,26.08
2023-03-19T04:56:04.213Z,26.06
2023-03-19T04:57:04.228Z,26.05
2023-03-19T04:58:04.295Z,26.06
2023-03-19T04:59:04.352Z,26.06
2023-03-19T05:00:04.413Z,26.06
2023-03-19T05:01:04.425Z,26.09
2023-03-19T05:02:04.448Z,26.08
2023-03-19T05:03:04.509Z,26.08
2023-03-19T05:04:04.645Z,26.06
2023-03-19T05:05:04.597Z,26.06
2023-03-19T05:06:04.630Z,26.06
2023-03-19T05:07:04.680Z,26.08
2023-03-19T05:08:04.730Z,26.06
2023-03-19T05:09:04.760Z,26.06
2023-03-19T05:10:04.821Z,26.05
2023-03-19T05:11:04.845Z,26.05
2023-03-19T05:12:04.892Z,26.05
2023-03-19T05:13:04.947Z,26.08
2023-03-19T05:14:04.990Z,26.05
2023-03-19T05:15:05.043Z,26.06
2023-03-19T05:16:05.123Z,26.06
2023-03-19T05:17:05.141Z,26.05
2023-03-19T05:18:05.186Z,26.05
2023-03-19T05:19:05.222Z,26.08
2023-03-19T05:20:05.274Z,26.08
2023-03-19T05:21:05.311Z,26.06
2023-03-19T05:22:05.358Z,26.06
2023-03-19T05:23:05.429Z,26.04
2023-03-19T05:24:05.469Z,26.08
2023-03-19T05:25:05.510Z,26.08
2023-03-19T05:26:05.565Z,26.06
2023-03-19T05:27:05.577Z,26.06
2023-03-19T05:28:05.634Z,26.05
2023-03-19T05:29:05.693Z,26.05
2023-03-19T05:30:05.747Z,26.05
2023-03-19T05:31:05.847Z,26.06
2023-03-19T05:32:05.799Z,26.04
2023-03-19T05:33:05.942Z,26.08
2023-03-19T05:34:05.918Z,26.06
2023-03-19T05:35:05.957Z,26.04
2023-03-19T05:36:06.058Z,26.06
2023-03-19T05:37:06.065Z,26.06
2023-03-19T05:38:06.084Z,26.05
2023-03-19T05:39:06.131Z,26.05
2023-03-19T05:40:06.166Z,26.06
2023-03-19T05:41:06.224Z,26.06
2023-03-19T05:42:06.244Z,26.06
2023-03-19T05:43:06.298Z,26.08
2023-03-19T05:44:06.322Z,26.05
2023-03-19T05:45:06.394Z,26.06
2023-03-19T05:46:06.498Z,26.08
2023-03-19T05:47:06.482Z,26.05
2023-03-19T05:48:06.562Z,26.06
2023-03-19T05:49:06.587Z,26.05
2023-03-19T05:50:06.598Z,26.06
2023-03-19T05:51:06.683Z,26.06
2023-03-19T05:52:06.753Z,26.06
2023-03-19T05:53:06.745Z,26.06
2023-03-19T05:54:06.842Z,26.06
2023-03-19T05:55:06.891Z,26.05
2023-03-19T05:56:06.939Z,26.06
2023-03-19T05:57:06.965Z,26.08
2023-03-19T05:58:06.995Z,26.04
2023-03-19T08:56:12.918Z,27.35
2023-03-19T08:57:12.944Z,27.38
2023-03-19T08:58:13.005Z,27.37
2023-03-19T08:59:13.025Z,27.38
2023-03-19T09:00:13.109Z,27.38
2023-03-19T09:01:13.159Z,27.38
2023-03-19T09:02:13.157Z,27.38
2023-03-19T09:03:13.246Z,27.38
2023-03-19T09:04:13.266Z,27.38
2023-03-19T09:05:13.328Z,27.38
2023-03-19T09:06:13.322Z,27.42
2023-03-19T09:07:13.406Z,27.38
2023-03-19T09:08:13.462Z,27.40
2023-03-19T09:09:13.516Z,27.40
2023-03-19T09:10:13.558Z,27.41
2023-03-19T09:11:13.654Z,27.44
2023-03-19T09:12:13.652Z,27.42
2023-03-19T09:13:13.701Z,27.41
2023-03-19T09:14:13.732Z,27.41
2023-03-19T09:15:13.758Z,27.42
2023-03-19T09:16:13.886Z,27.42
2023-03-19T09:17:13.804Z,27.42
2023-03-19T09:18:13.901Z,27.44
2023-03-19T09:19:13.946Z,27.44
2023-03-19T09:20:13.903Z,27.45
2023-03-19T09:21:14.011Z,27.44
2023-03-19T09:22:14.034Z,27.46
2023-03-19T09:23:14.097Z,27.46
2023-03-19T09:24:14.148Z,27.45
2023-03-19T09:25:14.174Z,27.46
2023-03-19T09:26:14.208Z,27.45
2023-03-19T09:27:14.245Z,27.46
2023-03-19T09:28:14.317Z,27.48
2023-03-19T09:29:14.363Z,27.48
2023-03-19T09:30:14.422Z,27.48
2023-03-19T09:31:14.457Z,27.46
2023-03-19T09:32:14.488Z,27.48
2023-03-19T09:33:14.609Z,27.49
2023-03-19T10:39:42.895Z,27.65
2023-03-19T10:40:42.954Z,27.64
2023-03-19T10:41:42.986Z,27.64
2023-03-19T10:42:43.026Z,27.65
2023-03-19T10:43:43.070Z,27.65
2023-03-19T10:44:43.061Z,27.62
2023-03-19T10:45:43.124Z,27.65
2023-03-19T10:46:43.196Z,27.65
2023-03-19T10:47:43.352Z,27.62
2023-03-19T10:48:43.544Z,27.64
2023-03-19T10:49:43.440Z,27.64
2023-03-19T10:50:43.276Z,27.64
2023-03-19T10:51:43.304Z,27.65
2023-03-19T10:52:43.371Z,27.64
2023-03-19T10:53:43.426Z,27.64
2023-03-19T10:54:43.417Z,27.66
2023-03-19T10:55:43.465Z,27.65
2023-03-19T10:56:43.504Z,27.62
2023-03-19T10:57:43.568Z,27.65
2023-03-19T10:58:43.580Z,27.65
2023-03-19T10:59:43.668Z,27.66
2023-03-19T11:00:43.722Z,27.65
2023-03-19T11:01:43.731Z,27.69
2023-03-19T11:02:43.774Z,27.66
2023-03-19T11:03:43.830Z,27.68
2023-03-19T11:04:43.850Z,27.69
2023-03-19T11:05:43.909Z,27.68
2023-03-19T11:06:43.969Z,27.69
2023-03-19T11:07:44.007Z,27.66
2023-03-19T11:08:44.046Z,27.69
2023-03-19T11:09:44.091Z,27.68
2023-03-19T11:10:44.133Z,27.71
2023-03-19T11:11:44.139Z,27.69
2023-03-19T11:12:44.190Z,27.71
2023-03-19T11:13:44.234Z,27.72
2023-03-19T11:14:44.256Z,27.72
2023-03-19T11:15:44.318Z,27.72
2023-03-19T11:16:44.359Z,27.72
2023-03-19T11:17:44.386Z,27.72
2023-03-19T11:18:44.425Z,27.72
2023-03-19T11:19:44.470Z,27.72
2023-03-19T11:20:44.486Z,27.73
2023-03-19T11:21:44.529Z,27.73
2023-03-19T11:22:44.574Z,27.72
2023-03-19T11:23:44.607Z,27.72
2023-03-19T11:24:44.634Z,27.73
2023-03-19T11:25:44.706Z,27.73
2023-03-19T11:26:44.694Z,27.75
2023-03-19T11:27:44.757Z,27.75
2023-03-19T11:28:44.822Z,27.76
2023-03-19T11:29:44.818Z,27.75
2023-03-19T11:30:44.848Z,27.75
2023-03-19T11:31:44.896Z,27.76
2023-03-19T11:32:44.980Z,27.76
2023-03-19T11:33:44.956Z,27.76
2023-03-19T11:34:44.982Z,27.78
2023-03-19T11:35:45.109Z,27.78
2023-03-19T11:36:45.087Z,27.78
2023-03-19T11:37:45.100Z,27.78
2023-03-19T11:38:45.136Z,27.79
2023-03-19T11:39:45.178Z,27.76
2023-03-19T11:40:45.221Z,27.78
2023-03-19T11:41:45.295Z,27.79
2023-03-19T11:42:45.356Z,27.78
2023-03-19T11:43:45.385Z,27.79
2023-03-19T11:44:45.439Z,27.81
2023-03-19T11:45:45.542Z,27.81
2023-03-19T11:46:45.490Z,27.82
2023-03-19T11:47:45.518Z,27.84
2023-03-19T11:48:45.571Z,27.81
2023-03-19T11:49:45.586Z,27.82
2023-03-19T11:50:48.082Z,27.82
2023-03-19T11:51:45.805Z,27.82
2023-03-19T11:52:45.820Z,27.85
2023-03-19T11:53:45.832Z,27.82
2023-03-19T11:54:45.876Z,27.84
2023-03-19T11:55:45.909Z,27.82
2023-03-19T11:56:45.920Z,27.85
2023-03-19T11:57:46.072Z,27.86
2023-03-19T11:58:46.034Z,27.82
2023-03-19T11:59:46.065Z,27.82
2023-03-19T12:00:46.135Z,27.81
2023-03-19T12:01:46.160Z,27.79
2023-03-19T12:02:46.230Z,27.82
2023-03-19T12:03:46.314Z,27.79
2023-03-19T12:04:46.270Z,27.81
2023-03-19T12:05:46.309Z,27.84
2023-03-19T12:06:46.364Z,27.84
2023-03-19T12:07:46.401Z,27.81
2023-03-19T12:08:46.451Z,27.81
2023-03-19T12:09:46.516Z,27.81
2023-03-19T12:10:46.531Z,27.79
2023-03-19T12:11:46.552Z,27.79
2023-03-19T12:12:47.290Z,27.81
2023-03-19T12:13:46.613Z,27.81
2023-03-19T12:14:46.650Z,27.81
2023-03-19T12:15:46.715Z,27.79
2023-03-19T12:16:46.803Z,27.78
2023-03-19T12:17:46.754Z,27.75
2023-03-19T12:18:46.788Z,27.76
2023-03-19T12:19:46.857Z,27.75
2023-03-19T12:20:46.890Z,27.76
2023-03-19T12:21:46.982Z,27.78
2023-03-19T12:22:47.019Z,27.76
2023-03-19T12:23:46.952Z,27.75
2023-03-19T12:24:47.011Z,27.75
2023-03-19T12:25:47.058Z,27.79
2023-03-19T12:26:47.074Z,27.78
2023-03-19T12:27:47.115Z,27.81
2023-03-19T12:28:47.165Z,27.78
2023-03-19T12:29:47.199Z,27.79
2023-03-19T12:30:47.279Z,27.78
2023-03-19T12:31:47.293Z,27.78
2023-03-19T12:32:47.346Z,27.76
2023-03-19T12:33:47.318Z,27.79
2023-03-19T12:34:47.365Z,27.81
2023-03-19T12:35:47.418Z,27.78
2023-03-19T12:36:47.420Z,27.78
2023-03-19T12:37:47.456Z,27.76
2023-03-19T12:38:47.474Z,27.78
2023-03-19T12:39:47.507Z,27.76
2023-03-19T12:40:47.559Z,27.78
2023-03-19T12:41:47.572Z,27.78
2023-03-19T12:42:47.633Z,27.78
2023-03-19T12:43:47.672Z,27.78
2023-03-19T12:44:47.700Z,27.76
2023-03-19T12:45:47.749Z,27.76
2023-03-19T12:46:48.431Z,27.75
2023-03-19T12:47:48.038Z,27.78
2023-03-19T12:48:47.884Z,27.79
2023-03-19T12:49:47.948Z,27.78
2023-03-19T12:50:47.924Z,27.79
2023-03-19T12:51:47.979Z,27.76
2023-03-19T12:52:48.028Z,27.79
2023-03-19T12:53:48.046Z,27.76
2023-03-19T12:54:48.055Z,27.78
2023-03-19T12:55:48.105Z,27.78
2023-03-19T12:56:48.144Z,27.81
2023-03-19T12:57:48.218Z,27.78
2023-03-19T12:58:48.225Z,27.76
2023-03-19T12:59:48.236Z,27.79
2023-03-19T13:00:48.266Z,27.79
2023-03-19T13:01:48.383Z,27.78
2023-03-19T13:02:48.396Z,27.78
2023-03-19T13:03:48.349Z,27.76
2023-03-19T13:04:48.438Z,27.78
2023-03-19T13:05:48.469Z,27.81
2023-03-19T13:06:48.481Z,27.78
2023-03-19T13:07:48.524Z,27.76
2023-03-19T14:49:52.885Z,27.46
2023-03-19T14:50:52.984Z,27.45
2023-03-19T14:51:53.048Z,27.45
2023-03-19T14:52:53.039Z,27.46
2023-03-19T14:53:53.099Z,27.46
2023-03-19T14:54:53.137Z,27.42
2023-03-19T14:55:53.171Z,27.44
2023-03-19T14:56:53.208Z,27.45
2023-03-19T14:57:53.277Z,27.44
2023-03-19T14:58:53.300Z,27.44
2023-03-19T14:59:53.367Z,27.44
2023-03-19T15:00:53.410Z,27.42
2023-03-19T15:01:53.433Z,27.42
2023-03-19T15:02:53.518Z,27.41
2023-03-19T15:03:53.542Z,27.40
2023-03-19T15:18:54.336Z,27.38
2023-03-19T17:49:02.926Z,27.03
2023-03-19T17:50:02.950Z,27.00
2023-03-19T17:51:02.983Z,27.00
2023-03-19T17:52:03.054Z,27.01
2023-03-19T17:53:03.049Z,27.00
2023-03-19T17:54:03.105Z,27.00
2023-03-19T17:55:03.167Z,27.03
2023-03-19T17:56:03.184Z,27.00
2023-03-19T17:57:03.228Z,27.01
2023-03-19T17:58:03.267Z,26.98
2023-03-19T17:59:03.304Z,26.98
2023-03-19T18:00:03.345Z,26.98
2023-03-19T18:01:03.419Z,27.00
2023-03-19T18:02:03.475Z,26.98
2023-03-19T18:03:03.560Z,26.97
2023-03-19T18:04:03.659Z,26.97
2023-03-19T18:05:03.632Z,26.98
2023-03-19T18:06:03.729Z,27.00
2023-03-19T18:07:03.749Z,27.00
2023-03-19T18:08:03.801Z,26.98
2023-03-19T18:09:03.845Z,26.97
2023-03-19T18:10:03.842Z,26.98
2023-03-19T18:11:03.912Z,26.97
2023-03-19T18:12:03.960Z,26.95
2023-03-19T18:13:05.562Z,26.97
2023-03-19T18:14:04.049Z,26.97
2023-03-19T18:15:04.047Z,26.95
2023-03-19T18:16:04.086Z,26.95
2023-03-19T18:17:04.106Z,26.95
2023-03-19T18:18:04.092Z,26.95
2023-03-19T18:19:04.117Z,26.97
2023-03-19T18:20:04.116Z,26.94
2023-03-19T18:21:04.156Z,26.95
2023-03-19T18:22:04.154Z,26.95
2023-03-19T18:23:04.184Z,26.95
2023-03-19T18:24:04.179Z,26.93
2023-03-19T18:25:04.186Z,26.93
2023-03-19T18:26:04.217Z,26.94
2023-03-19T18:27:04.220Z,26.91
2023-03-19T18:28:04.270Z,26.93
2023-03-19T18:29:04.258Z,26.93
2023-03-19T18:30:04.294Z,26.93
2023-03-19T18:31:04.318Z,26.93
2023-03-19T18:32:04.421Z,26.93
2023-03-19T18:33:04.380Z,26.94
2023-03-19T18:34:04.347Z,26.93
2023-03-19T18:35:04.366Z,26.93
2023-03-19T18:36:04.376Z,26.91
2023-03-19T18:37:04.395Z,26.91
2023-03-19T18:38:04.405Z,26.91
2023-03-19T18:39:04.423Z,26.90
2023-03-19T18:40:04.441Z,26.91
2023-03-19T18:41:04.455Z,26.91
2023-03-19T18:42:04.454Z,26.93
2023-03-19T18:43:04.491Z,26.91
2023-03-19T18:44:04.465Z,26.90
2023-03-19T18:45:04.508Z,26.91
2023-03-19T18:46:04.582Z,26.90
2023-03-19T18:47:04.562Z,26.90
2023-03-19T18:48:04.573Z,26.87
2023-03-19T18:49:04.561Z,26.90
2023-03-19T18:50:04.598Z,26.91
2023-03-19T18:51:04.581Z,26.89
2023-03-19T18:52:04.593Z,26.90
2023-03-19T18:53:04.657Z,26.87
2023-03-19T18:54:04.631Z,26.87
2023-03-19T18:55:04.733Z,26.90
2023-03-19T18:56:04.694Z,26.87
2023-03-19T18:57:04.675Z,26.86
2023-03-19T18:58:04.696Z,26.89
2023-03-19T18:59:04.706Z,26.87
2023-03-19T19:00:04.703Z,26.86
2023-03-19T19:01:04.787Z,26.89
2023-03-19T19:02:04.768Z,26.87
2023-03-19T19:03:04.773Z,26.87
2023-03-19T19:04:04.791Z,26.87
2023-03-19T19:05:04.788Z,26.90
2023-03-19T19:06:04.772Z,26.89
2023-03-19T19:07:04.798Z,26.86
2023-03-19T19:08:04.819Z,26.87
2023-03-19T19:09:04.834Z,26.86
2023-03-19T19:10:04.859Z,26.86
2023-03-19T19:11:04.867Z,26.86
2023-03-19T19:12:04.891Z,26.86
2023-03-19T19:13:04.905Z,26.86
2023-03-19T19:14:04.912Z,26.84
2023-03-19T19:15:04.964Z,26.84
2023-03-19T19:16:04.954Z,26.84
2023-03-19T19:17:04.937Z,26.83
2023-03-19T19:18:04.994Z,26.83
2023-03-19T19:19:05.020Z,26.84
2023-03-19T19:20:05.017Z,26.83
2023-03-19T19:21:05.038Z,26.80
2023-03-19T19:22:05.034Z,26.82
2023-03-19T19:23:05.045Z,26.80
2023-03-19T19:24:05.067Z,26.83
2023-03-19T19:25:05.094Z,26.83
2023-03-19T19:26:05.102Z,26.80
2023-03-19T19:27:05.126Z,26.80
2023-03-19T19:28:05.187Z,26.80
2023-03-19T19:29:05.145Z,26.80
2023-03-19T19:30:05.146Z,26.79
2023-03-19T19:31:05.207Z,26.80
2023-03-19T19:32:05.203Z,26.82
2023-03-19T19:33:05.257Z,26.80
2023-03-19T19:34:05.233Z,26.80
2023-03-19T19:35:05.225Z,26.80
2023-03-19T19:36:05.286Z,26.80
2023-03-19T19:37:05.284Z,26.79
2023-03-19T19:38:05.256Z,26.79
2023-03-19T19:39:05.312Z,26.80
2023-03-19T19:40:05.290Z,26.79
2023-03-19T19:41:05.313Z,26.79
2023-03-19T19:42:05.380Z,26.79
2023-03-19T19:43:05.400Z,26.79
2023-03-19T19:44:05.421Z,26.77
2023-03-19T19:45:05.438Z,26.76
2023-03-19T19:46:05.540Z,26.77
2023-03-19T19:47:08.824Z,26.74
2023-03-19T19:48:05.569Z,26.76
2023-03-19T19:49:05.557Z,26.77
2023-03-19T19:50:05.580Z,26.73
2023-03-19T19:51:05.583Z,26.74
2023-03-19T19:52:05.601Z,26.74
2023-03-19T19:53:05.626Z,26.74
2023-03-19T19:54:05.597Z,26.74
2023-03-19T19:55:05.634Z,26.76
2023-03-19T19:56:05.650Z,26.76
2023-03-19T19:57:05.643Z,26.74
2023-03-19T19:58:07.481Z,26.73
2023-03-19T19:59:05.674Z,26.74
2023-03-19T20:00:05.650Z,26.74
2023-03-19T20:01:05.688Z,26.76
2023-03-19T20:02:05.689Z,26.74
2023-03-19T20:03:05.703Z,26.73
2023-03-19T20:04:05.802Z,26.74
2023-03-19T20:05:05.740Z,26.73
2023-03-19T20:06:05.741Z,26.73
2023-03-19T20:07:05.748Z,26.73
2023-03-19T20:08:05.756Z,26.73
2023-03-19T20:09:05.791Z,26.72
2023-03-19T20:10:05.802Z,26.73
2023-03-19T20:11:05.813Z,26.73
2023-03-19T20:12:05.834Z,26.73
2023-03-19T20:13:05.860Z,26.72
2023-03-19T20:14:05.915Z,26.73
2023-03-19T20:15:05.905Z,26.72
2023-03-19T20:16:05.929Z,26.72
2023-03-19T20:17:05.918Z,26.72
2023-03-19T20:18:05.944Z,26.69
2023-03-19T20:19:05.976Z,26.72
2023-03-19T20:20:05.994Z,26.72
2023-03-19T20:21:06.025Z,26.72
2023-03-19T20:22:06.022Z,26.72
2023-03-19T20:23:06.033Z,26.72
2023-03-19T20:24:06.047Z,26.72
2023-03-19T20:25:06.069Z,26.70
2023-03-19T20:26:06.104Z,26.72
2023-03-19T20:27:06.112Z,26.70
2023-03-19T20:28:06.124Z,26.72
2023-03-19T20:29:06.165Z,26.70
2023-03-19T20:30:06.170Z,26.70
2023-03-19T20:31:06.241Z,26.72
2023-03-19T20:32:06.200Z,26.70
2023-03-19T20:33:06.270Z,26.69
2023-03-19T20:34:06.256Z,26.72
2023-03-19T20:35:06.285Z,26.70
2023-03-19T20:36:06.368Z,26.69
2023-03-19T20:37:06.343Z,26.70
2023-03-19T20:38:06.321Z,26.69
2023-03-19T20:39:06.364Z,26.69
2023-03-19T20:40:06.394Z,26.69
2023-03-19T20:41:06.389Z,26.69
2023-03-19T20:42:06.423Z,26.69
2023-03-19T20:43:06.426Z,26.69
2023-03-19T20:44:06.483Z,26.69
2023-03-19T20:45:06.465Z,26.67
2023-03-19T20:46:06.494Z,26.72
2023-03-19T20:47:06.472Z,26.70
2023-03-19T20:48:06.495Z,26.66
2023-03-19T20:49:06.489Z,26.69
2023-03-19T20:50:06.498Z,26.70
2023-03-19T20:51:06.563Z,26.73
2023-03-19T20:52:06.523Z,26.70
2023-03-19T20:53:06.564Z,26.67
2023-03-19T20:54:06.579Z,26.69
2023-03-19T20:55:06.571Z,26.69
2023-03-19T20:56:06.589Z,26.69
2023-03-19T20:57:06.616Z,26.67
2023-03-19T20:58:06.622Z,26.69
2023-03-19T20:59:06.626Z,26.67
2023-03-19T21:00:06.629Z,26.69
2023-03-19T21:01:06.655Z,26.66
2023-03-19T21:02:06.780Z,26.69
2023-03-19T21:03:06.757Z,26.69
2023-03-19T21:04:06.732Z,26.69
2023-03-19T21:05:06.698Z,26.69
2023-03-19T21:06:06.768Z,26.66
2023-03-19T21:07:06.749Z,26.67
2023-03-19T21:08:06.759Z,26.66
2023-03-19T21:09:06.777Z,26.67
2023-03-19T21:10:06.791Z,26.64
2023-03-19T21:11:06.817Z,26.64
2023-03-19T21:12:06.836Z,26.66
2023-03-19T21:13:06.829Z,26.66
2023-03-19T21:14:06.850Z,26.64
2023-03-19T21:15:06.882Z,26.64
2023-03-19T21:16:07.026Z,26.66
2023-03-19T21:17:06.904Z,26.64
2023-03-19T21:18:06.898Z,26.64
2023-03-19T21:19:06.918Z,26.66
2023-03-19T21:20:06.907Z,26.67
2023-03-19T21:21:06.949Z,26.63
2023-03-19T21:22:06.939Z,26.64
2023-03-19T21:23:07.002Z,26.64